sensor_id;sensor_type;location;lat;lon;timestamp;temperature;humidity
45463;SHT31;31209;49.456;11.134;2022-08-05T00:00:31;25.7;77.01
45463;SHT31;31209;49.456;11.134;2022-08-05T00:01:32;25.67;76.97
45463;SHT31;31209;49.456;11.134;2022-08-05T00:02:33;25.7;77.08
45463;SHT31;31209;49.456;11.134;2022-08-05T00:03:33;25.69;77.14
45463;SHT31;31209;49.456;11.134;2022-08-05T00:04:35;25.66;77.24
45463;SHT31;31209;49.456;11.134;2022-08-05T00:05:35;25.67;77.48
45463;SHT31;31209;49.456;11.134;2022-08-05T00:06:36;25.69;77.46
45463;SHT31;31209;49.456;11.134;2022-08-05T00:07:37;25.64;77.33
45463;SHT31;31209;49.456;11.134;2022-08-05T00:08:38;25.63;77.48
45463;SHT31;31209;49.456;11.134;2022-08-05T00:09:39;25.67;77.58
45463;SHT31;31209;49.456;11.134;2022-08-05T00:10:40;25.66;77.44
45463;SHT31;31209;49.456;11.134;2022-08-05T00:11:46;25.66;77.43
45463;SHT31;31209;49.456;11.134;2022-08-05T00:12:50;25.66;77.44
45463;SHT31;31209;49.456;11.134;2022-08-05T00:13:51;25.63;77.38
45463;SHT31;31209;49.456;11.134;2022-08-05T00:14:52;25.63;77.36
45463;SHT31;31209;49.456;11.134;2022-08-05T00:15:52;25.63;77.28
45463;SHT31;31209;49.456;11.134;2022-08-05T00:16:53;25.59;77.3
45463;SHT31;31209;49.456;11.134;2022-08-05T00:17:54;25.57;77.52
45463;SHT31;31209;49.456;11.134;2022-08-05T00:18:55;25.55;77.66
45463;SHT31;31209;49.456;11.134;2022-08-05T00:19:56;25.56;77.71
45463;SHT31;31209;49.456;11.134;2022-08-05T00:20:57;25.55;77.72
45463;SHT31;31209;49.456;11.134;2022-08-05T00:21:57;25.47;77.71
45463;SHT31;31209;49.456;11.134;2022-08-05T00:22:58;25.45;77.86
45463;SHT31;31209;49.456;11.134;2022-08-05T00:23:59;25.47;77.73
45463;SHT31;31209;49.456;11.134;2022-08-05T00:25:00;25.4;77.77
45463;SHT31;31209;49.456;11.134;2022-08-05T00:26:01;25.4;77.84
45463;SHT31;31209;49.456;11.134;2022-08-05T00:27:04;25.43;77.84
45463;SHT31;31209;49.456;11.134;2022-08-05T00:28:04;25.45;77.82
45463;SHT31;31209;49.456;11.134;2022-08-05T00:29:05;25.37;77.91
45463;SHT31;31209;49.456;11.134;2022-08-05T00:30:07;25.35;78.08
45463;SHT31;31209;49.456;11.134;2022-08-05T00:31:08;25.32;78.17
45463;SHT31;31209;49.456;11.134;2022-08-05T00:32:09;25.3;78.26
45463;SHT31;31209;49.456;11.134;2022-08-05T00:33:10;25.33;78.32
45463;SHT31;31209;49.456;11.134;2022-08-05T00:34:11;25.23;78.23
45463;SHT31;31209;49.456;11.134;2022-08-05T00:35:12;25.16;78.5
45463;SHT31;31209;49.456;11.134;2022-08-05T00:36:13;25.17;78.66
45463;SHT31;31209;49.456;11.134;2022-08-05T00:37:13;25.15;78.59
45463;SHT31;31209;49.456;11.134;2022-08-05T00:38:14;25.09;78.71
45463;SHT31;31209;49.456;11.134;2022-08-05T00:39:15;25.04;78.87
45463;SHT31;31209;49.456;11.134;2022-08-05T00:40:16;25.06;78.96
45463;SHT31;31209;49.456;11.134;2022-08-05T00:41:26;24.98;78.96
45463;SHT31;31209;49.456;11.134;2022-08-05T00:42:30;24.96;79.0
45463;SHT31;31209;49.456;11.134;2022-08-05T00:43:31;24.98;78.98
45463;SHT31;31209;49.456;11.134;2022-08-05T00:44:32;24.92;78.95
45463;SHT31;31209;49.456;11.134;2022-08-05T00:45:34;24.89;79.03
45463;SHT31;31209;49.456;11.134;2022-08-05T00:46:34;24.91;79.13
45463;SHT31;31209;49.456;11.134;2022-08-05T00:47:35;24.85;79.12
45463;SHT31;31209;49.456;11.134;2022-08-05T00:48:36;24.85;79.12
45463;SHT31;31209;49.456;11.134;2022-08-05T00:49:37;24.84;79.22
45463;SHT31;31209;49.456;11.134;2022-08-05T00:50:38;24.84;79.12
45463;SHT31;31209;49.456;11.134;2022-08-05T00:51:40;24.74;79.13
45463;SHT31;31209;49.456;11.134;2022-08-05T00:52:41;24.78;79.18
45463;SHT31;31209;49.456;11.134;2022-08-05T00:53:42;24.74;79.3
45463;SHT31;31209;49.456;11.134;2022-08-05T00:54:42;24.74;79.34
45463;SHT31;31209;49.456;11.134;2022-08-05T00:55:44;24.74;79.35
45463;SHT31;31209;49.456;11.134;2022-08-05T00:56:45;24.65;79.4
45463;SHT31;31209;49.456;11.134;2022-08-05T00:57:46;24.65;79.46
45463;SHT31;31209;49.456;11.134;2022-08-05T00:58:46;24.62;79.42
45463;SHT31;31209;49.456;11.134;2022-08-05T00:59:47;24.61;79.51
45463;SHT31;31209;49.456;11.134;2022-08-05T01:00:48;24.62;79.59
45463;SHT31;31209;49.456;11.134;2022-08-05T01:01:49;24.64;79.65
45463;SHT31;31209;49.456;11.134;2022-08-05T01:02:50;24.61;79.53
45463;SHT31;31209;49.456;11.134;2022-08-05T01:03:51;24.6;79.58
45463;SHT31;31209;49.456;11.134;2022-08-05T01:04:51;24.57;79.57
45463;SHT31;31209;49.456;11.134;2022-08-05T01:05:52;24.55;79.48
45463;SHT31;31209;49.456;11.134;2022-08-05T01:06:53;24.54;79.58
45463;SHT31;31209;49.456;11.134;2022-08-05T01:07:54;24.55;79.67
45463;SHT31;31209;49.456;11.134;2022-08-05T01:08:55;24.51;79.62
45463;SHT31;31209;49.456;11.134;2022-08-05T01:09:56;24.5;79.6
45463;SHT31;31209;49.456;11.134;2022-08-05T01:11:01;24.47;79.58
45463;SHT31;31209;49.456;11.134;2022-08-05T01:12:16;24.45;79.45
45463;SHT31;31209;49.456;11.134;2022-08-05T01:13:24;24.47;79.43
45463;SHT31;31209;49.456;11.134;2022-08-05T01:14:34;24.45;79.45
45463;SHT31;31209;49.456;11.134;2022-08-05T01:15:42;24.42;79.51
45463;SHT31;31209;49.456;11.134;2022-08-05T01:16:47;24.45;79.56
45463;SHT31;31209;49.456;11.134;2022-08-05T01:17:54;24.41;79.47
45463;SHT31;31209;49.456;11.134;2022-08-05T01:18:59;24.4;79.5
45463;SHT31;31209;49.456;11.134;2022-08-05T01:20:11;24.37;79.46
45463;SHT31;31209;49.456;11.134;2022-08-05T01:21:29;24.37;79.55
45463;SHT31;31209;49.456;11.134;2022-08-05T01:22:41;24.34;79.61
45463;SHT31;31209;49.456;11.134;2022-08-05T01:23:56;24.33;79.79
45463;SHT31;31209;49.456;11.134;2022-08-05T01:25:12;24.3;79.8
45463;SHT31;31209;49.456;11.134;2022-08-05T01:26:28;24.28;79.78
45463;SHT31;31209;49.456;11.134;2022-08-05T01:27:47;24.26;79.83
45463;SHT31;31209;49.456;11.134;2022-08-05T01:28:58;24.27;80.01
45463;SHT31;31209;49.456;11.134;2022-08-05T01:30:02;24.23;80.04
45463;SHT31;31209;49.456;11.134;2022-08-05T01:31:08;24.21;80.09
45463;SHT31;31209;49.456;11.134;2022-08-05T01:32:11;24.2;80.19
45463;SHT31;31209;49.456;11.134;2022-08-05T01:33:17;24.17;80.24
45463;SHT31;31209;49.456;11.134;2022-08-05T01:34:26;24.16;80.33
45463;SHT31;31209;49.456;11.134;2022-08-05T01:35:30;24.13;80.34
45463;SHT31;31209;49.456;11.134;2022-08-05T01:36:37;24.14;80.52
45463;SHT31;31209;49.456;11.134;2022-08-05T01:37:44;24.11;80.51
45463;SHT31;31209;49.456;11.134;2022-08-05T01:38:45;24.13;80.46
45463;SHT31;31209;49.456;11.134;2022-08-05T01:39:48;24.08;80.48
45463;SHT31;31209;49.456;11.134;2022-08-05T01:40:51;24.11;80.39
45463;SHT31;31209;49.456;11.134;2022-08-05T01:41:54;24.08;80.41
45463;SHT31;31209;49.456;11.134;2022-08-05T01:42:56;24.08;80.39
45463;SHT31;31209;49.456;11.134;2022-08-05T01:44:00;24.07;80.39
45463;SHT31;31209;49.456;11.134;2022-08-05T01:45:03;24.07;80.45
45463;SHT31;31209;49.456;11.134;2022-08-05T01:46:05;24.07;80.38
45463;SHT31;31209;49.456;11.134;2022-08-05T01:47:07;24.07;80.37
45463;SHT31;31209;49.456;11.134;2022-08-05T01:48:09;24.07;80.4
45463;SHT31;31209;49.456;11.134;2022-08-05T01:49:17;24.01;80.41
45463;SHT31;31209;49.456;11.134;2022-08-05T01:50:24;24.03;80.39
45463;SHT31;31209;49.456;11.134;2022-08-05T01:51:26;23.98;80.44
45463;SHT31;31209;49.456;11.134;2022-08-05T01:52:30;24.0;80.45
45463;SHT31;31209;49.456;11.134;2022-08-05T01:53:34;24.01;80.42
45463;SHT31;31209;49.456;11.134;2022-08-05T01:54:40;24.0;80.48
45463;SHT31;31209;49.456;11.134;2022-08-05T01:55:43;23.98;80.56
45463;SHT31;31209;49.456;11.134;2022-08-05T01:56:44;23.98;80.5
45463;SHT31;31209;49.456;11.134;2022-08-05T01:57:46;23.97;80.64
45463;SHT31;31209;49.456;11.134;2022-08-05T01:58:49;23.94;80.67
45463;SHT31;31209;49.456;11.134;2022-08-05T01:59:54;23.93;80.71
45463;SHT31;31209;49.456;11.134;2022-08-05T02:00:58;23.91;80.84
45463;SHT31;31209;49.456;11.134;2022-08-05T02:02:01;23.89;80.93
45463;SHT31;31209;49.456;11.134;2022-08-05T02:03:07;23.86;80.96
45463;SHT31;31209;49.456;11.134;2022-08-05T02:04:09;23.84;80.96
45463;SHT31;31209;49.456;11.134;2022-08-05T02:05:12;23.86;80.95
45463;SHT31;31209;49.456;11.134;2022-08-05T02:06:14;23.87;81.13
45463;SHT31;31209;49.456;11.134;2022-08-05T02:07:15;23.9;81.12
45463;SHT31;31209;49.456;11.134;2022-08-05T02:08:17;23.84;81.21
45463;SHT31;31209;49.456;11.134;2022-08-05T02:09:17;23.84;81.34
45463;SHT31;31209;49.456;11.134;2022-08-05T02:10:19;23.8;81.46
45463;SHT31;31209;49.456;11.134;2022-08-05T02:11:23;23.76;81.56
45463;SHT31;31209;49.456;11.134;2022-08-05T02:12:33;23.75;81.53
45463;SHT31;31209;49.456;11.134;2022-08-05T02:13:42;23.73;81.52
45463;SHT31;31209;49.456;11.134;2022-08-05T02:14:48;23.72;81.47
45463;SHT31;31209;49.456;11.134;2022-08-05T02:15:58;23.75;81.47
45463;SHT31;31209;49.456;11.134;2022-08-05T02:17:06;23.76;81.54
45463;SHT31;31209;49.456;11.134;2022-08-05T02:18:13;23.73;81.54
45463;SHT31;31209;49.456;11.134;2022-08-05T02:19:22;23.69;81.68
45463;SHT31;31209;49.456;11.134;2022-08-05T02:20:27;23.67;81.75
45463;SHT31;31209;49.456;11.134;2022-08-05T02:21:33;23.63;81.8
45463;SHT31;31209;49.456;11.134;2022-08-05T02:22:39;23.6;81.8
45463;SHT31;31209;49.456;11.134;2022-08-05T02:23:43;23.57;81.81
45463;SHT31;31209;49.456;11.134;2022-08-05T02:24:49;23.57;81.83
45463;SHT31;31209;49.456;11.134;2022-08-05T02:25:51;23.6;81.82
45463;SHT31;31209;49.456;11.134;2022-08-05T02:26:57;23.55;81.88
45463;SHT31;31209;49.456;11.134;2022-08-05T02:28:00;23.55;81.88
45463;SHT31;31209;49.456;11.134;2022-08-05T02:29:02;23.55;81.87
45463;SHT31;31209;49.456;11.134;2022-08-05T02:30:05;23.55;81.87
45463;SHT31;31209;49.456;11.134;2022-08-05T02:31:12;23.57;81.85
45463;SHT31;31209;49.456;11.134;2022-08-05T02:32:16;23.59;81.82
45463;SHT31;31209;49.456;11.134;2022-08-05T02:33:19;23.56;81.83
45463;SHT31;31209;49.456;11.134;2022-08-05T02:34:21;23.55;81.86
45463;SHT31;31209;49.456;11.134;2022-08-05T02:35:24;23.53;81.83
45463;SHT31;31209;49.456;11.134;2022-08-05T02:36:26;23.53;81.96
45463;SHT31;31209;49.456;11.134;2022-08-05T02:37:29;23.53;81.95
45463;SHT31;31209;49.456;11.134;2022-08-05T02:38:33;23.53;81.97
45463;SHT31;31209;49.456;11.134;2022-08-05T02:39:37;23.49;81.96
45463;SHT31;31209;49.456;11.134;2022-08-05T02:40:41;23.47;82.01
45463;SHT31;31209;49.456;11.134;2022-08-05T02:41:44;23.49;82.11
45463;SHT31;31209;49.456;11.134;2022-08-05T02:42:47;23.49;82.01
45463;SHT31;31209;49.456;11.134;2022-08-05T02:43:48;23.42;82.27
45463;SHT31;31209;49.456;11.134;2022-08-05T02:44:51;23.46;82.19
45463;SHT31;31209;49.456;11.134;2022-08-05T02:45:53;23.49;82.19
45463;SHT31;31209;49.456;11.134;2022-08-05T02:46:55;23.46;82.32
45463;SHT31;31209;49.456;11.134;2022-08-05T02:47:56;23.49;82.3
45463;SHT31;31209;49.456;11.134;2022-08-05T02:48:59;23.5;82.38
45463;SHT31;31209;49.456;11.134;2022-08-05T02:50:00;23.45;82.46
45463;SHT31;31209;49.456;11.134;2022-08-05T02:51:02;23.47;82.53
45463;SHT31;31209;49.456;11.134;2022-08-05T02:52:08;23.45;82.64
45463;SHT31;31209;49.456;11.134;2022-08-05T02:53:09;23.43;82.66
45463;SHT31;31209;49.456;11.134;2022-08-05T02:54:11;23.45;82.68
45463;SHT31;31209;49.456;11.134;2022-08-05T02:55:14;23.42;82.71
45463;SHT31;31209;49.456;11.134;2022-08-05T02:56:16;23.47;82.69
45463;SHT31;31209;49.456;11.134;2022-08-05T02:57:18;23.43;82.63
45463;SHT31;31209;49.456;11.134;2022-08-05T02:58:21;23.45;82.7
45463;SHT31;31209;49.456;11.134;2022-08-05T02:59:23;23.47;82.67
45463;SHT31;31209;49.456;11.134;2022-08-05T03:00:26;23.47;82.67
45463;SHT31;31209;49.456;11.134;2022-08-05T03:01:28;23.52;82.66
45463;SHT31;31209;49.456;11.134;2022-08-05T03:02:33;23.49;82.51
45463;SHT31;31209;49.456;11.134;2022-08-05T03:03:38;23.46;82.51
45463;SHT31;31209;49.456;11.134;2022-08-05T03:04:41;23.5;82.43
45463;SHT31;31209;49.456;11.134;2022-08-05T03:05:42;23.46;82.57
45463;SHT31;31209;49.456;11.134;2022-08-05T03:06:43;23.45;82.76
45463;SHT31;31209;49.456;11.134;2022-08-05T03:07:45;23.45;82.81
45463;SHT31;31209;49.456;11.134;2022-08-05T03:08:46;23.42;82.97
45463;SHT31;31209;49.456;11.134;2022-08-05T03:09:48;23.35;83.17
45463;SHT31;31209;49.456;11.134;2022-08-05T03:10:49;23.39;83.03
45463;SHT31;31209;49.456;11.134;2022-08-05T03:11:57;23.36;83.05
45463;SHT31;31209;49.456;11.134;2022-08-05T03:12:58;23.29;83.11
45463;SHT31;31209;49.456;11.134;2022-08-05T03:13:59;23.33;83.17
45463;SHT31;31209;49.456;11.134;2022-08-05T03:15:00;23.35;83.19
45463;SHT31;31209;49.456;11.134;2022-08-05T03:16:00;23.35;83.15
45463;SHT31;31209;49.456;11.134;2022-08-05T03:17:07;23.42;83.03
45463;SHT31;31209;49.456;11.134;2022-08-05T03:18:08;23.36;83.02
45463;SHT31;31209;49.456;11.134;2022-08-05T03:19:08;23.42;83.07
45463;SHT31;31209;49.456;11.134;2022-08-05T03:20:10;23.42;83.0
45463;SHT31;31209;49.456;11.134;2022-08-05T03:21:11;23.43;82.93
45463;SHT31;31209;49.456;11.134;2022-08-05T03:22:13;23.39;82.89
45463;SHT31;31209;49.456;11.134;2022-08-05T03:23:13;23.4;82.92
45463;SHT31;31209;49.456;11.134;2022-08-05T03:24:15;23.39;82.89
45463;SHT31;31209;49.456;11.134;2022-08-05T03:25:17;23.39;82.9
45463;SHT31;31209;49.456;11.134;2022-08-05T03:26:18;23.4;82.92
45463;SHT31;31209;49.456;11.134;2022-08-05T03:27:20;23.42;82.82
45463;SHT31;31209;49.456;11.134;2022-08-05T03:28:22;23.43;82.8
45463;SHT31;31209;49.456;11.134;2022-08-05T03:29:23;23.4;82.84
45463;SHT31;31209;49.456;11.134;2022-08-05T03:30:25;23.39;83.02
45463;SHT31;31209;49.456;11.134;2022-08-05T03:31:27;23.31;83.38
45463;SHT31;31209;49.456;11.134;2022-08-05T03:32:29;23.25;83.54
45463;SHT31;31209;49.456;11.134;2022-08-05T03:33:30;23.21;83.73
45463;SHT31;31209;49.456;11.134;2022-08-05T03:34:31;23.04;83.96
45463;SHT31;31209;49.456;11.134;2022-08-05T03:35:33;22.92;84.29
45463;SHT31;31209;49.456;11.134;2022-08-05T03:36:34;23.0;84.24
45463;SHT31;31209;49.456;11.134;2022-08-05T03:37:35;23.08;84.25
45463;SHT31;31209;49.456;11.134;2022-08-05T03:38:39;23.16;84.21
45463;SHT31;31209;49.456;11.134;2022-08-05T03:39:51;23.19;84.1
45463;SHT31;31209;49.456;11.134;2022-08-05T03:40:52;23.09;84.24
45463;SHT31;31209;49.456;11.134;2022-08-05T03:41:53;23.13;84.35
45463;SHT31;31209;49.456;11.134;2022-08-05T03:42:53;23.22;84.24
45463;SHT31;31209;49.456;11.134;2022-08-05T03:43:54;23.33;84.04
45463;SHT31;31209;49.456;11.134;2022-08-05T03:44:55;23.39;83.87
45463;SHT31;31209;49.456;11.134;2022-08-05T03:45:56;23.5;83.66
45463;SHT31;31209;49.456;11.134;2022-08-05T03:46:56;23.49;83.56
45463;SHT31;31209;49.456;11.134;2022-08-05T03:47:57;23.5;83.69
45463;SHT31;31209;49.456;11.134;2022-08-05T03:48:58;23.53;83.83
45463;SHT31;31209;49.456;11.134;2022-08-05T03:49:59;23.56;83.69
45463;SHT31;31209;49.456;11.134;2022-08-05T03:51:06;23.59;83.59
45463;SHT31;31209;49.456;11.134;2022-08-05T03:52:11;23.6;83.5
45463;SHT31;31209;49.456;11.134;2022-08-05T03:53:18;23.57;83.46
45463;SHT31;31209;49.456;11.134;2022-08-05T03:54:30;23.55;83.64
45463;SHT31;31209;49.456;11.134;2022-08-05T03:55:36;23.55;83.8
45463;SHT31;31209;49.456;11.134;2022-08-05T03:56:42;23.62;83.64
45463;SHT31;31209;49.456;11.134;2022-08-05T03:57:44;23.66;83.55
45463;SHT31;31209;49.456;11.134;2022-08-05T03:58:47;23.67;83.44
45463;SHT31;31209;49.456;11.134;2022-08-05T03:59:50;23.73;83.48
45463;SHT31;31209;49.456;11.134;2022-08-05T04:00:53;23.72;83.49
45463;SHT31;31209;49.456;11.134;2022-08-05T04:01:57;23.7;83.54
45463;SHT31;31209;49.456;11.134;2022-08-05T04:03:01;23.72;83.61
45463;SHT31;31209;49.456;11.134;2022-08-05T04:04:04;23.66;83.7
45463;SHT31;31209;49.456;11.134;2022-08-05T04:05:07;23.65;83.83
45463;SHT31;31209;49.456;11.134;2022-08-05T04:06:09;23.59;83.91
45463;SHT31;31209;49.456;11.134;2022-08-05T04:07:10;23.59;83.92
45463;SHT31;31209;49.456;11.134;2022-08-05T04:08:12;23.6;84.2
45463;SHT31;31209;49.456;11.134;2022-08-05T04:09:14;23.65;84.16
45463;SHT31;31209;49.456;11.134;2022-08-05T04:10:15;23.69;84.03
45463;SHT31;31209;49.456;11.134;2022-08-05T04:11:20;23.72;83.91
45463;SHT31;31209;49.456;11.134;2022-08-05T04:12:27;23.73;83.92
45463;SHT31;31209;49.456;11.134;2022-08-05T04:13:29;23.73;83.84
45463;SHT31;31209;49.456;11.134;2022-08-05T04:14:30;23.76;83.86
45463;SHT31;31209;49.456;11.134;2022-08-05T04:15:32;23.73;83.92
45463;SHT31;31209;49.456;11.134;2022-08-05T04:16:33;23.75;83.96
45463;SHT31;31209;49.456;11.134;2022-08-05T04:17:35;23.73;84.03
45463;SHT31;31209;49.456;11.134;2022-08-05T04:18:37;23.75;84.13
45463;SHT31;31209;49.456;11.134;2022-08-05T04:19:42;23.73;84.22
45463;SHT31;31209;49.456;11.134;2022-08-05T04:20:43;23.77;84.2
45463;SHT31;31209;49.456;11.134;2022-08-05T04:21:44;23.77;84.1
45463;SHT31;31209;49.456;11.134;2022-08-05T04:22:45;23.77;84.09
45463;SHT31;31209;49.456;11.134;2022-08-05T04:23:46;23.8;84.14
45463;SHT31;31209;49.456;11.134;2022-08-05T04:24:47;23.82;84.18
45463;SHT31;31209;49.456;11.134;2022-08-05T04:25:48;23.8;84.17
45463;SHT31;31209;49.456;11.134;2022-08-05T04:26:49;23.82;84.15
45463;SHT31;31209;49.456;11.134;2022-08-05T04:27:49;23.8;84.16
45463;SHT31;31209;49.456;11.134;2022-08-05T04:28:50;23.83;84.2
45463;SHT31;31209;49.456;11.134;2022-08-05T04:29:51;23.82;84.31
45463;SHT31;31209;49.456;11.134;2022-08-05T04:30:52;23.86;84.34
45463;SHT31;31209;49.456;11.134;2022-08-05T04:31:53;23.87;84.41
45463;SHT31;31209;49.456;11.134;2022-08-05T04:32:57;23.86;84.33
45463;SHT31;31209;49.456;11.134;2022-08-05T04:33:58;23.83;84.35
45463;SHT31;31209;49.456;11.134;2022-08-05T04:34:59;23.83;84.54
45463;SHT31;31209;49.456;11.134;2022-08-05T04:36:00;23.82;84.64
45463;SHT31;31209;49.456;11.134;2022-08-05T04:37:03;23.83;84.65
45463;SHT31;31209;49.456;11.134;2022-08-05T04:38:04;23.84;84.59
45463;SHT31;31209;49.456;11.134;2022-08-05T04:39:05;23.87;84.52
45463;SHT31;31209;49.456;11.134;2022-08-05T04:40:07;23.89;84.47
45463;SHT31;31209;49.456;11.134;2022-08-05T04:41:08;23.96;84.56
45463;SHT31;31209;49.456;11.134;2022-08-05T04:42:09;24.0;84.33
45463;SHT31;31209;49.456;11.134;2022-08-05T04:43:10;23.97;84.38
45463;SHT31;31209;49.456;11.134;2022-08-05T04:44:10;23.98;84.52
45463;SHT31;31209;49.456;11.134;2022-08-05T04:45:11;24.03;84.53
45463;SHT31;31209;49.456;11.134;2022-08-05T04:46:12;24.03;84.41
45463;SHT31;31209;49.456;11.134;2022-08-05T04:47:13;24.1;84.44
45463;SHT31;31209;49.456;11.134;2022-08-05T04:48:14;24.14;84.42
45463;SHT31;31209;49.456;11.134;2022-08-05T04:49:15;24.14;84.42
45463;SHT31;31209;49.456;11.134;2022-08-05T04:50:16;24.18;84.3
45463;SHT31;31209;49.456;11.134;2022-08-05T04:51:17;24.18;84.23
45463;SHT31;31209;49.456;11.134;2022-08-05T04:52:18;24.2;84.1
45463;SHT31;31209;49.456;11.134;2022-08-05T04:53:19;24.23;84.04
45463;SHT31;31209;49.456;11.134;2022-08-05T04:54:20;24.23;83.94
45463;SHT31;31209;49.456;11.134;2022-08-05T04:55:21;24.26;83.81
45463;SHT31;31209;49.456;11.134;2022-08-05T04:56:22;24.27;83.67
45463;SHT31;31209;49.456;11.134;2022-08-05T04:57:23;24.3;83.59
45463;SHT31;31209;49.456;11.134;2022-08-05T04:58:24;24.33;83.46
45463;SHT31;31209;49.456;11.134;2022-08-05T04:59:24;24.34;83.39
45463;SHT31;31209;49.456;11.134;2022-08-05T05:00:25;24.37;83.4
45463;SHT31;31209;49.456;11.134;2022-08-05T05:01:26;24.37;83.6
45463;SHT31;31209;49.456;11.134;2022-08-05T05:02:27;24.4;83.81
45463;SHT31;31209;49.456;11.134;2022-08-05T05:03:28;24.4;83.8
45463;SHT31;31209;49.456;11.134;2022-08-05T05:04:28;24.4;83.73
45463;SHT31;31209;49.456;11.134;2022-08-05T05:05:29;24.44;83.7
45463;SHT31;31209;49.456;11.134;2022-08-05T05:06:30;24.47;83.94
45463;SHT31;31209;49.456;11.134;2022-08-05T05:07:31;24.48;84.12
45463;SHT31;31209;49.456;11.134;2022-08-05T05:08:32;24.52;84.04
45463;SHT31;31209;49.456;11.134;2022-08-05T05:09:32;24.55;83.98
45463;SHT31;31209;49.456;11.134;2022-08-05T05:10:37;24.55;84.0
45463;SHT31;31209;49.456;11.134;2022-08-05T05:11:43;24.57;83.95
45463;SHT31;31209;49.456;11.134;2022-08-05T05:12:46;24.54;83.82
45463;SHT31;31209;49.456;11.134;2022-08-05T05:13:47;24.58;83.67
45463;SHT31;31209;49.456;11.134;2022-08-05T05:14:47;24.62;83.03
45463;SHT31;31209;49.456;11.134;2022-08-05T05:15:48;24.6;82.86
45463;SHT31;31209;49.456;11.134;2022-08-05T05:16:49;24.57;83.14
45463;SHT31;31209;49.456;11.134;2022-08-05T05:17:50;24.64;83.16
45463;SHT31;31209;49.456;11.134;2022-08-05T05:18:50;24.64;83.07
45463;SHT31;31209;49.456;11.134;2022-08-05T05:19:52;24.65;83.07
45463;SHT31;31209;49.456;11.134;2022-08-05T05:20:53;24.64;83.06
45463;SHT31;31209;49.456;11.134;2022-08-05T05:21:54;24.6;82.92
45463;SHT31;31209;49.456;11.134;2022-08-05T05:22:55;24.62;82.82
45463;SHT31;31209;49.456;11.134;2022-08-05T05:23:56;24.62;82.89
45463;SHT31;31209;49.456;11.134;2022-08-05T05:24:56;24.64;82.8
45463;SHT31;31209;49.456;11.134;2022-08-05T05:25:57;24.65;82.61
45463;SHT31;31209;49.456;11.134;2022-08-05T05:26:58;24.66;82.11
45463;SHT31;31209;49.456;11.134;2022-08-05T05:27:59;24.66;82.21
45463;SHT31;31209;49.456;11.134;2022-08-05T05:29:00;24.66;82.04
45463;SHT31;31209;49.456;11.134;2022-08-05T05:30:01;24.71;81.73
45463;SHT31;31209;49.456;11.134;2022-08-05T05:31:02;24.69;81.27
45463;SHT31;31209;49.456;11.134;2022-08-05T05:32:04;24.68;81.27
45463;SHT31;31209;49.456;11.134;2022-08-05T05:33:06;24.69;80.92
45463;SHT31;31209;49.456;11.134;2022-08-05T05:34:07;24.69;80.6
45463;SHT31;31209;49.456;11.134;2022-08-05T05:35:08;24.74;80.76
45463;SHT31;31209;49.456;11.134;2022-08-05T05:36:09;24.74;80.78
45463;SHT31;31209;49.456;11.134;2022-08-05T05:37:11;24.75;80.98
45463;SHT31;31209;49.456;11.134;2022-08-05T05:38:12;24.8;80.77
45463;SHT31;31209;49.456;11.134;2022-08-05T05:39:13;24.82;80.52
45463;SHT31;31209;49.456;11.134;2022-08-05T05:40:14;24.84;80.38
45463;SHT31;31209;49.456;11.134;2022-08-05T05:41:15;24.85;80.3
45463;SHT31;31209;49.456;11.134;2022-08-05T05:42:16;24.86;80.21
45463;SHT31;31209;49.456;11.134;2022-08-05T05:43:17;24.88;80.23
45463;SHT31;31209;49.456;11.134;2022-08-05T05:44:18;24.82;79.91
45463;SHT31;31209;49.456;11.134;2022-08-05T05:45:19;24.85;79.82
45463;SHT31;31209;49.456;11.134;2022-08-05T05:46:20;24.84;79.81
45463;SHT31;31209;49.456;11.134;2022-08-05T05:47:21;24.84;79.74
45463;SHT31;31209;49.456;11.134;2022-08-05T05:48:22;24.86;79.59
45463;SHT31;31209;49.456;11.134;2022-08-05T05:49:23;24.88;79.56
45463;SHT31;31209;49.456;11.134;2022-08-05T05:50:24;24.92;79.41
45463;SHT31;31209;49.456;11.134;2022-08-05T05:51:25;24.95;79.55
45463;SHT31;31209;49.456;11.134;2022-08-05T05:52:26;24.96;79.57
45463;SHT31;31209;49.456;11.134;2022-08-05T05:53:27;25.04;79.53
45463;SHT31;31209;49.456;11.134;2022-08-05T05:54:28;25.01;79.5
45463;SHT31;31209;49.456;11.134;2022-08-05T05:55:29;25.02;79.42
45463;SHT31;31209;49.456;11.134;2022-08-05T05:56:30;25.04;79.25
45463;SHT31;31209;49.456;11.134;2022-08-05T05:57:31;25.06;79.2
45463;SHT31;31209;49.456;11.134;2022-08-05T05:58:32;25.11;79.06
45463;SHT31;31209;49.456;11.134;2022-08-05T05:59:33;25.16;79.16
45463;SHT31;31209;49.456;11.134;2022-08-05T06:00:33;25.11;79.03
45463;SHT31;31209;49.456;11.134;2022-08-05T06:01:37;25.15;79.18
45463;SHT31;31209;49.456;11.134;2022-08-05T06:02:39;25.19;78.98
45463;SHT31;31209;49.456;11.134;2022-08-05T06:03:40;25.29;79.1
45463;SHT31;31209;49.456;11.134;2022-08-05T06:04:40;25.33;79.03
45463;SHT31;31209;49.456;11.134;2022-08-05T06:05:41;25.4;78.9
45463;SHT31;31209;49.456;11.134;2022-08-05T06:06:43;25.42;78.91
45463;SHT31;31209;49.456;11.134;2022-08-05T06:07:44;25.46;78.84
45463;SHT31;31209;49.456;11.134;2022-08-05T06:08:45;25.49;78.76
45463;SHT31;31209;49.456;11.134;2022-08-05T06:09:46;25.55;78.76
45463;SHT31;31209;49.456;11.134;2022-08-05T06:10:47;25.59;78.73
45463;SHT31;31209;49.456;11.134;2022-08-05T06:11:47;25.66;78.69
45463;SHT31;31209;49.456;11.134;2022-08-05T06:12:52;25.7;78.58
45463;SHT31;31209;49.456;11.134;2022-08-05T06:13:53;25.74;78.55
45463;SHT31;31209;49.456;11.134;2022-08-05T06:14:54;25.83;78.54
45463;SHT31;31209;49.456;11.134;2022-08-05T06:15:55;25.94;78.47
45463;SHT31;31209;49.456;11.134;2022-08-05T06:16:56;25.97;78.47
45463;SHT31;31209;49.456;11.134;2022-08-05T06:17:57;26.03;78.3
45463;SHT31;31209;49.456;11.134;2022-08-05T06:18:58;26.11;78.24
45463;SHT31;31209;49.456;11.134;2022-08-05T06:19:59;26.14;78.14
45463;SHT31;31209;49.456;11.134;2022-08-05T06:20:59;26.25;78.0
45463;SHT31;31209;49.456;11.134;2022-08-05T06:22:00;26.31;77.93
45463;SHT31;31209;49.456;11.134;2022-08-05T06:23:01;26.34;77.89
45463;SHT31;31209;49.456;11.134;2022-08-05T06:24:02;26.38;77.86
45463;SHT31;31209;49.456;11.134;2022-08-05T06:25:04;26.39;77.76
45463;SHT31;31209;49.456;11.134;2022-08-05T06:26:05;26.41;77.75
45463;SHT31;31209;49.456;11.134;2022-08-05T06:27:06;26.38;77.85
45463;SHT31;31209;49.456;11.134;2022-08-05T06:28:07;26.38;77.96
45463;SHT31;31209;49.456;11.134;2022-08-05T06:29:08;26.34;78.03
45463;SHT31;31209;49.456;11.134;2022-08-05T06:30:10;26.28;78.15